Time;durP1;ratioP1;P1;durP2;ratioP2;P2;SDS_P1;SDS_P2;PMS_P1;PMS_P2;Temp;Humidity;BMP_temperature;BMP_pressure;BME280_temperature;BME280_humidity;BME280_pressure;Samples;Min_cycle;Max_cycle;Signal;HPM_P1;HPM_P2
2022/07/03 00:00:10;;;;;;;8.32;2.00;;;14.80;99.90;;;;;;5052081;28;20057;-75
2022/07/03 00:02:37;;;;;;;6.80;1.50;;;14.80;99.90;;;;;;5045176;28;20363;-75
2022/07/03 00:05:05;;;;;;;6.30;1.38;;;14.90;99.90;;;;;;5046027;28;20051;-77
2022/07/03 00:07:33;;;;;;;10.93;1.52;;;14.90;99.90;;;;;;5055543;28;20192;-78
2022/07/03 00:10:00;;;;;;;10.27;1.35;;;14.80;99.90;;;;;;5036077;28;20033;-72
2022/07/03 00:12:27;;;;;;;7.78;1.08;;;14.80;99.90;;;;;;5040269;28;20053;-77
2022/07/03 00:14:55;;;;;;;8.80;1.50;;;14.90;99.90;;;;;;5032977;28;20108;-71
2022/07/03 00:17:22;;;;;;;7.32;0.80;;;15.00;99.90;;;;;;5031268;28;20494;-77
2022/07/03 00:19:50;;;;;;;4.45;0.47;;;15.10;99.90;;;;;;5055102;28;20128;-72
2022/07/03 00:22:17;;;;;;;8.18;1.25;;;15.20;99.90;;;;;;5038878;28;20124;-75
2022/07/03 00:24:52;;;;;;;7.93;0.85;;;15.30;99.90;;;;;;5044099;28;20116;-75
2022/07/03 00:27:23;;;;;;;9.20;0.80;;;15.30;99.90;;;;;;5029289;28;20036;-73
2022/07/03 00:29:53;;;;;;;8.70;1.45;;;15.30;99.90;;;;;;5035345;28;20040;-72
2022/07/03 00:32:24;;;;;;;3.78;0.88;;;15.40;99.90;;;;;;5045076;28;20082;-73
2022/07/03 00:34:54;;;;;;;5.13;0.77;;;15.50;99.90;;;;;;5034984;28;20036;-75
2022/07/03 00:37:22;;;;;;;3.05;0.52;;;15.50;99.90;;;;;;5049318;28;20036;-73
2022/07/03 00:39:50;;;;;;;4.70;1.02;;;15.50;99.90;;;;;;5040334;28;20053;-76
2022/07/03 00:42:18;;;;;;;3.55;0.75;;;15.60;99.90;;;;;;5033369;28;20059;-72
2022/07/03 00:44:51;;;;;;;13.13;1.95;;;15.60;99.90;;;;;;5031480;28;20083;-76
2022/07/03 00:47:21;;;;;;;8.15;1.30;;;15.70;99.90;;;;;;5042745;28;20044;-76
2022/07/03 00:50:05;;;;;;;5.70;0.50;;;15.80;99.90;;;;;;5039609;28;20115;-74
2022/07/03 00:52:34;;;;;;;10.90;1.27;;;15.80;99.90;;;;;;5033219;28;20055;-73
2022/07/03 00:55:03;;;;;;;5.20;0.70;;;15.80;99.90;;;;;;5034067;28;20055;-79
2022/07/03 00:57:31;;;;;;;4.40;1.05;;;15.90;99.90;;;;;;5041315;28;20108;-73
2022/07/03 01:00:00;;;;;;;6.80;1.75;;;16.00;99.90;;;;;;5038893;28;20077;-75
2022/07/03 01:02:54;;;;;;;6.60;0.77;;;16.00;99.90;;;;;;5053876;28;20029;-74
2022/07/03 01:05:43;;;;;;;6.03;1.33;;;16.00;99.90;;;;;;5036700;28;20025;-74
2022/07/03 01:08:31;;;;;;;6.68;0.90;;;15.90;99.90;;;;;;5038099;28;20052;-72
2022/07/03 01:11:39;;;;;;;3.20;1.58;;;15.90;99.90;;;;;;5034688;28;20028;-72
2022/07/03 01:14:16;;;;;;;6.90;1.77;;;15.90;99.90;;;;;;5026075;28;20054;-71
2022/07/03 01:16:58;;;;;;;8.88;1.45;;;15.90;99.90;;;;;;5047667;28;20035;-74
2022/07/03 01:19:46;;;;;;;6.85;1.40;;;16.00;99.90;;;;;;5065925;28;20548;-71
2022/07/03 01:22:34;;;;;;;8.02;1.88;;;16.00;99.90;;;;;;5046193;28;20033;-71
2022/07/03 01:25:22;;;;;;;8.00;2.70;;;16.20;99.90;;;;;;5044652;28;20128;-74
2022/07/03 01:28:06;;;;;;;6.90;1.10;;;16.10;99.90;;;;;;5033093;28;20046;-73
2022/07/03 01:30:39;;;;;;;5.70;0.95;;;16.00;99.90;;;;;;5039153;28;20060;-73
2022/07/03 01:33:16;;;;;;;10.85;1.38;;;16.00;99.90;;;;;;5033624;28;20474;-72
2022/07/03 01:35:58;;;;;;;10.23;1.58;;;16.00;99.90;;;;;;5055351;28;20028;-72
2022/07/03 01:38:28;;;;;;;8.93;1.08;;;16.10;99.90;;;;;;5043927;28;20021;-72
2022/07/03 01:40:58;;;;;;;8.07;3.13;;;16.10;99.90;;;;;;5047705;28;20032;-76
2022/07/03 01:43:29;;;;;;;9.38;3.00;;;16.10;99.90;;;;;;5035015;28;20036;-76
2022/07/03 01:45:59;;;;;;;11.45;2.03;;;16.20;99.90;;;;;;5044701;28;20057;-75
2022/07/03 01:48:28;;;;;;;6.07;1.73;;;16.30;99.90;;;;;;5040341;28;20107;-75
2022/07/03 01:50:57;;;;;;;7.43;2.05;;;16.40;99.90;;;;;;5033397;28;20108;-75
2022/07/03 01:53:26;;;;;;;4.63;1.63;;;16.40;99.90;;;;;;5056013;28;20138;-74
2022/07/03 01:55:57;;;;;;;3.90;1.05;;;16.30;99.90;;;;;;5026853;28;20029;-72
2022/07/03 01:58:25;;;;;;;4.82;1.60;;;16.20;99.90;;;;;;5049206;28;20076;-70
2022/07/03 02:01:05;;;;;;;5.55;1.42;;;16.10;99.90;;;;;;5051983;28;20500;-70
2022/07/03 02:03:35;;;;;;;10.00;1.58;;;16.10;99.90;;;;;;5052909;28;20059;-71
2022/07/03 02:06:21;;;;;;;7.10;1.70;;;16.10;99.90;;;;;;5040974;28;20116;-73
2022/07/03 02:09:08;;;;;;;6.47;1.50;;;16.00;99.90;;;;;;5042427;28;20030;-74
2022/07/03 02:11:40;;;;;;;8.80;1.20;;;15.80;99.90;;;;;;5050517;28;20033;-74
2022/07/03 02:14:17;;;;;;;7.97;1.65;;;15.70;99.90;;;;;;5046865;28;20033;-76
2022/07/03 02:17:14;;;;;;;6.15;1.23;;;15.60;99.90;;;;;;5052081;28;20380;-74
2022/07/03 02:20:07;;;;;;;7.05;1.27;;;15.60;99.90;;;;;;5034726;28;20084;-73
2022/07/03 02:22:59;;;;;;;9.80;1.45;;;15.60;99.90;;;;;;5048073;28;20025;-73
2022/07/03 02:25:36;;;;;;;15.80;1.65;;;15.70;99.90;;;;;;5052160;28;20056;-72
2022/07/03 02:28:27;;;;;;;12.73;2.65;;;15.80;99.90;;;;;;5051715;28;20041;-73
2022/07/03 02:30:59;;;;;;;10.68;2.17;;;15.80;99.90;;;;;;5058793;28;20028;-72
2022/07/03 02:33:30;;;;;;;11.20;2.50;;;15.90;99.90;;;;;;5042950;28;20127;-72
2022/07/03 02:36:00;;;;;;;13.15;3.65;;;15.90;99.90;;;;;;5035851;28;20136;-74
2022/07/03 02:38:29;;;;;;;14.27;2.05;;;16.00;99.90;;;;;;5069887;28;20024;-72
2022/07/03 02:41:25;;;;;;;8.88;1.55;;;16.00;99.90;;;;;;5032411;28;20076;-75
2022/07/03 02:44:23;;;;;;;11.77;1.65;;;16.10;99.90;;;;;;5024747;28;20041;-75
2022/07/03 02:47:00;;;;;;;12.18;2.45;;;16.20;99.90;;;;;;5041756;28;20056;-75
2022/07/03 02:49:56;;;;;;;13.98;2.60;;;16.30;99.90;;;;;;5031514;28;20048;-74
2022/07/03 02:52:38;;;;;;;8.55;1.67;;;16.30;99.90;;;;;;5049054;28;20049;-74
2022/07/03 02:55:30;;;;;;;13.00;2.10;;;16.40;99.90;;;;;;5047757;28;20147;-74
2022/07/03 02:58:33;;;;;;;11.20;1.75;;;16.50;99.90;;;;;;5045975;28;20029;-72
2022/07/03 03:01:27;;;;;;;7.60;1.67;;;16.50;99.90;;;;;;5039181;28;20793;-73
2022/07/03 03:04:27;;;;;;;22.83;1.77;;;16.50;99.90;;;;;;5036107;28;20173;-74
2022/07/03 03:07:13;;;;;;;14.80;3.33;;;16.50;99.90;;;;;;5031292;28;20112;-72
2022/07/03 03:09:45;;;;;;;12.27;2.40;;;16.50;99.90;;;;;;5047947;28;20043;-73
2022/07/03 03:12:14;;;;;;;13.85;1.83;;;16.50;99.90;;;;;;5053381;28;20036;-72
2022/07/03 03:14:48;;;;;;;7.18;2.17;;;16.40;99.90;;;;;;5041136;28;20068;-71
2022/07/03 03:17:35;;;;;;;11.63;2.35;;;16.30;99.90;;;;;;5041612;28;20061;-73
2022/07/03 03:20:03;;;;;;;9.13;1.70;;;16.20;99.90;;;;;;5054387;28;20032;-72
2022/07/03 03:23:02;;;;;;;14.68;3.22;;;16.10;99.90;;;;;;5030195;28;20387;-75
2022/07/03 03:25:30;;;;;;;9.48;2.25;;;16.10;99.90;;;;;;5034394;28;20032;-73
2022/07/03 03:27:59;;;;;;;7.95;1.60;;;16.00;99.90;;;;;;5043507;28;20041;-73
2022/07/03 03:30:26;;;;;;;5.70;0.95;;;15.80;99.90;;;;;;5049005;28;20017;-73
2022/07/03 03:32:53;;;;;;;25.15;2.67;;;15.70;99.90;;;;;;5032587;28;20550;-72
2022/07/03 03:35:21;;;;;;;18.42;2.60;;;15.70;99.90;;;;;;5030745;28;20037;-72
2022/07/03 03:37:50;;;;;;;11.65;3.42;;;15.50;99.90;;;;;;5050532;28;20655;-74
2022/07/03 03:40:18;;;;;;;12.95;2.58;;;15.50;99.90;;;;;;5056660;28;20078;-74
2022/07/03 03:42:45;;;;;;;11.90;3.03;;;15.50;99.90;;;;;;5049874;28;20033;-72
2022/07/03 03:45:13;;;;;;;11.75;1.45;;;15.40;99.90;;;;;;5042018;28;20025;-71
2022/07/03 03:47:40;;;;;;;14.80;3.22;;;15.30;99.90;;;;;;5036525;28;20032;-72
2022/07/03 03:50:09;;;;;;;18.23;2.08;;;15.30;99.90;;;;;;5052905;28;20028;-72
2022/07/03 03:52:37;;;;;;;19.05;2.17;;;15.20;99.90;;;;;;5056120;28;20347;-73
2022/07/03 03:55:05;;;;;;;7.38;1.75;;;15.20;99.90;;;;;;5056414;28;20033;-76
2022/07/03 03:57:33;;;;;;;17.05;2.08;;;15.10;99.90;;;;;;5064228;28;20040;-74
2022/07/03 04:00:00;;;;;;;10.10;3.08;;;15.10;99.90;;;;;;5032722;28;20033;-71
2022/07/03 04:02:28;;;;;;;8.85;2.08;;;15.10;99.90;;;;;;5048705;28;20036;-74
2022/07/03 04:04:55;;;;;;;8.80;1.42;;;15.10;99.90;;;;;;5052188;28;20064;-74
2022/07/03 04:07:22;;;;;;;14.57;4.22;;;15.10;99.90;;;;;;5053586;28;20036;-75
2022/07/03 04:09:50;;;;;;;13.52;3.03;;;15.10;99.90;;;;;;5037644;28;20482;-75
2022/07/03 04:12:17;;;;;;;17.80;4.35;;;15.10;99.90;;;;;;5056327;28;20025;-75
2022/07/03 04:14:45;;;;;;;20.95;2.78;;;15.20;99.90;;;;;;5048585;28;20040;-75
2022/07/03 04:17:12;;;;;;;11.75;3.08;;;15.20;99.90;;;;;;5049371;28;20062;-76
2022/07/03 04:19:40;;;;;;;7.95;3.38;;;15.20;99.90;;;;;;5032192;28;20040;-75
2022/07/03 04:22:10;;;;;;;15.40;3.78;;;15.20;99.90;;;;;;5031393;28;20075;-77
2022/07/03 04:24:38;;;;;;;8.55;1.30;;;15.20;99.90;;;;;;5030415;28;20037;-74
2022/07/03 04:27:05;;;;;;;9.60;2.88;;;15.20;99.90;;;;;;5036656;28;20174;-73
2022/07/03 04:29:33;;;;;;;25.55;3.30;;;15.20;99.90;;;;;;5040979;28;20064;-76
2022/07/03 04:32:00;;;;;;;19.70;4.15;;;15.10;99.90;;;;;;5052952;28;20052;-73
2022/07/03 04:34:28;;;;;;;10.95;1.60;;;15.00;99.90;;;;;;5051725;28;20044;-76
2022/07/03 04:36:55;;;;;;;12.90;1.48;;;15.10;99.90;;;;;;5053160;28;20041;-75
2022/07/03 04:39:22;;;;;;;11.57;1.67;;;15.00;99.90;;;;;;5049923;28;20037;-78
2022/07/03 04:41:50;;;;;;;10.15;1.75;;;15.00;99.90;;;;;;5049718;28;20390;-77
2022/07/03 04:44:17;;;;;;;14.52;3.83;;;14.90;99.90;;;;;;5054649;28;20425;-74
2022/07/03 04:46:44;;;;;;;10.95;1.95;;;15.00;99.90;;;;;;5047927;28;20061;-77
2022/07/03 04:49:11;;;;;;;11.60;1.50;;;14.90;99.90;;;;;;5046667;28;20136;-75
2022/07/03 04:51:39;;;;;;;17.50;2.30;;;14.90;99.90;;;;;;5033644;28;20029;-76
2022/07/03 04:54:06;;;;;;;8.90;1.73;;;14.90;99.90;;;;;;5040892;28;20511;-72
2022/07/03 04:56:33;;;;;;;11.85;1.60;;;14.90;99.90;;;;;;5046294;28;21579;-76
2022/07/03 04:59:01;;;;;;;12.35;1.73;;;14.90;99.90;;;;;;5053132;28;20061;-75
2022/07/03 05:01:28;;;;;;;12.18;2.15;;;14.90;99.90;;;;;;5045785;28;20025;-75
2022/07/03 05:03:55;;;;;;;17.30;1.60;;;14.90;99.90;;;;;;5046992;28;20415;-77
2022/07/03 05:06:23;;;;;;;12.95;2.78;;;14.90;99.90;;;;;;5054542;28;20043;-76
2022/07/03 05:08:50;;;;;;;14.88;2.13;;;14.90;99.90;;;;;;5063866;28;20095;-79
2022/07/03 05:11:17;;;;;;;14.20;1.83;;;14.90;99.90;;;;;;5061864;28;20033;-77
2022/07/03 05:13:45;;;;;;;13.68;1.88;;;14.90;99.90;;;;;;5054187;28;20036;-75
2022/07/03 05:16:12;;;;;;;9.35;2.10;;;14.90;99.90;;;;;;5038246;28;20060;-76
2022/07/03 05:18:39;;;;;;;8.55;1.75;;;14.90;99.90;;;;;;5046023;28;20044;-75
2022/07/03 05:21:07;;;;;;;16.30;2.78;;;14.90;99.90;;;;;;5037821;28;20055;-78
2022/07/03 05:23:34;;;;;;;11.98;2.35;;;14.90;99.90;;;;;;5035266;28;20075;-76
2022/07/03 05:26:01;;;;;;;15.27;2.50;;;14.90;99.90;;;;;;5044169;28;20030;-75
2022/07/03 05:28:29;;;;;;;19.20;3.70;;;14.90;99.90;;;;;;5071046;28;20036;-76
2022/07/03 05:30:56;;;;;;;12.27;2.63;;;14.90;99.90;;;;;;5041376;28;20076;-77
2022/07/03 05:33:23;;;;;;;7.25;1.30;;;14.90;99.90;;;;;;5037286;28;20032;-77
2022/07/03 05:35:51;;;;;;;10.80;2.00;;;14.80;99.90;;;;;;5042805;28;20031;-80
2022/07/03 05:39:31;;;;;;;10.98;1.33;;;14.80;99.90;;;;;;5053385;28;20096;-78
2022/07/03 05:41:05;;;;;;;11.82;2.08;;;14.70;99.90;;;;;;5047035;28;20029;-78
2022/07/03 05:43:32;;;;;;;7.18;2.88;;;14.70;99.90;;;;;;5035634;28;20521;-79
2022/07/03 05:46:00;;;;;;;7.28;1.48;;;14.70;99.90;;;;;;5044766;28;20036;-80
2022/07/03 05:48:27;;;;;;;11.13;1.35;;;14.60;99.90;;;;;;5052696;28;20037;-77
2022/07/03 05:50:55;;;;;;;10.13;1.95;;;14.60;99.90;;;;;;5038004;28;20056;-77
2022/07/03 05:53:22;;;;;;;13.05;1.90;;;14.60;99.90;;;;;;5041802;28;20060;-78
2022/07/03 05:55:50;;;;;;;16.30;1.98;;;14.60;99.90;;;;;;5046924;28;20029;-74
2022/07/03 05:58:17;;;;;;;13.82;3.00;;;14.50;99.90;;;;;;5042313;28;20025;-76
2022/07/03 06:00:45;;;;;;;8.52;2.28;;;14.50;99.90;;;;;;5040676;28;20048;-75
2022/07/03 06:03:12;;;;;;;13.40;1.33;;;14.50;99.90;;;;;;5062439;28;20036;-76
2022/07/03 06:05:40;;;;;;;11.48;2.58;;;14.50;99.90;;;;;;5042127;28;20036;-75
2022/07/03 06:08:07;;;;;;;10.75;1.85;;;14.50;99.90;;;;;;5056829;28;20376;-76
2022/07/03 06:10:34;;;;;;;16.48;2.35;;;14.40;99.90;;;;;;5050865;28;20021;-77
2022/07/03 06:13:03;;;;;;;14.50;3.03;;;14.40;99.90;;;;;;5033794;28;20082;-76
2022/07/03 06:15:30;;;;;;;14.77;1.92;;;14.50;99.90;;;;;;5042815;28;20021;-77
2022/07/03 06:17:58;;;;;;;7.55;1.60;;;14.40;99.90;;;;;;5041011;28;20484;-77
2022/07/03 06:20:25;;;;;;;5.82;2.08;;;14.40;99.90;;;;;;5066700;28;20159;-75
2022/07/03 06:22:53;;;;;;;6.95;3.10;;;14.40;99.90;;;;;;5058111;28;20028;-76
2022/07/03 06:25:20;;;;;;;9.20;1.92;;;14.30;99.90;;;;;;5042953;28;20020;-77
2022/07/03 06:27:47;;;;;;;14.90;1.45;;;14.30;99.90;;;;;;5049443;28;20107;-77
2022/07/03 06:30:15;;;;;;;15.73;1.83;;;14.30;99.90;;;;;;5041850;28;20460;-77
2022/07/03 06:32:42;;;;;;;8.35;1.92;;;14.20;99.90;;;;;;5054886;28;20108;-77
2022/07/03 06:35:10;;;;;;;9.27;2.08;;;14.20;99.90;;;;;;5057988;28;20383;-77
2022/07/03 06:37:37;;;;;;;8.00;2.17;;;14.20;99.90;;;;;;5042379;28;20128;-77
2022/07/03 06:40:05;;;;;;;9.85;2.08;;;14.20;99.90;;;;;;5046735;28;20036;-74
2022/07/03 06:42:32;;;;;;;9.85;1.35;;;14.10;99.90;;;;;;5034121;28;20029;-76
2022/07/03 06:45:00;;;;;;;15.85;1.65;;;14.10;99.90;;;;;;5037237;28;20103;-75
2022/07/03 06:47:27;;;;;;;7.63;1.00;;;14.10;99.90;;;;;;5031290;28;20025;-75
2022/07/03 06:49:54;;;;;;;7.18;1.65;;;14.00;99.90;;;;;;5035614;28;20026;-75
2022/07/03 06:52:22;;;;;;;5.35;1.35;;;14.00;99.90;;;;;;5046897;28;20119;-72
2022/07/03 06:54:49;;;;;;;6.15;1.55;;;14.00;99.90;;;;;;5050253;28;20489;-71
2022/07/03 06:57:16;;;;;;;3.70;0.95;;;13.90;99.90;;;;;;5029794;28;20124;-78
2022/07/03 06:59:44;;;;;;;8.75;1.75;;;13.90;99.90;;;;;;5032237;28;20480;-77
2022/07/03 07:02:11;;;;;;;6.10;1.33;;;13.90;99.90;;;;;;5051555;28;20489;-75
2022/07/03 07:04:39;;;;;;;7.75;1.10;;;13.90;99.90;;;;;;5054656;28;20073;-76
2022/07/03 07:07:09;;;;;;;5.55;0.80;;;13.80;99.90;;;;;;5034945;28;20036;-76
2022/07/03 07:09:36;;;;;;;10.18;1.48;;;13.80;99.90;;;;;;5045102;28;20041;-74
2022/07/03 07:12:04;;;;;;;4.90;1.35;;;13.80;99.90;;;;;;5032645;28;20092;-74
2022/07/03 07:14:31;;;;;;;10.07;1.58;;;13.80;99.90;;;;;;5042861;28;20036;-76
2022/07/03 07:17:01;;;;;;;6.15;0.93;;;13.80;99.90;;;;;;5034664;28;20393;-72
2022/07/03 07:19:29;;;;;;;7.50;1.55;;;13.80;99.90;;;;;;5043068;28;20031;-73
2022/07/03 07:21:56;;;;;;;4.95;1.33;;;13.80;99.90;;;;;;5050017;28;20037;-75
2022/07/03 07:24:23;;;;;;;4.22;1.75;;;13.80;99.90;;;;;;5040686;28;20032;-74
2022/07/03 07:26:51;;;;;;;18.25;2.47;;;13.80;99.90;;;;;;5065093;28;20083;-75
2022/07/03 07:29:18;;;;;;;11.40;1.83;;;13.80;99.90;;;;;;5038011;28;20048;-74
2022/07/03 07:31:45;;;;;;;8.68;1.02;;;13.80;99.90;;;;;;5053495;28;20055;-74
2022/07/03 07:34:13;;;;;;;10.75;3.13;;;13.70;99.90;;;;;;5046135;28;20411;-73
2022/07/03 07:36:40;;;;;;;10.10;2.28;;;13.70;99.90;;;;;;5047704;28;20033;-73
2022/07/03 07:39:09;;;;;;;7.45;2.30;;;13.70;99.90;;;;;;5035490;28;20468;-75
2022/07/03 07:41:38;;;;;;;8.98;1.80;;;13.80;99.90;;;;;;5031387;28;20076;-75
2022/07/03 07:44:05;;;;;;;9.15;1.30;;;13.80;99.90;;;;;;5036400;28;20032;-77
2022/07/03 07:46:35;;;;;;;3.75;1.67;;;13.80;99.90;;;;;;5027944;28;20091;-75
2022/07/03 07:49:03;;;;;;;9.25;0.93;;;13.80;99.90;;;;;;5038982;28;20065;-74
2022/07/03 07:51:30;;;;;;;12.43;2.13;;;13.70;99.90;;;;;;5036465;28;20370;-76
2022/07/03 07:53:59;;;;;;;11.52;2.22;;;13.80;99.90;;;;;;5049613;28;20549;-79
2022/07/03 07:56:27;;;;;;;6.10;1.27;;;13.80;99.90;;;;;;5033385;28;20040;-77
2022/07/03 07:58:54;;;;;;;7.78;1.45;;;13.70;99.90;;;;;;5030633;28;20509;-77
2022/07/03 08:06:52;;;;;;;7.87;1.27;;;13.70;99.90;;;;;;5047816;28;20110;-74
2022/07/03 08:09:20;;;;;;;9.70;1.10;;;13.80;99.90;;;;;;5041545;28;20029;-74
2022/07/03 08:11:48;;;;;;;10.70;2.30;;;13.70;99.90;;;;;;5041450;28;20029;-74
2022/07/03 08:14:19;;;;;;;6.22;1.30;;;13.80;99.90;;;;;;5058459;28;20371;-78
2022/07/03 08:16:46;;;;;;;5.60;0.98;;;13.70;99.90;;;;;;5061928;28;20017;-75
2022/07/03 08:19:13;;;;;;;15.27;2.22;;;13.80;99.90;;;;;;5053986;28;20044;-82
2022/07/03 08:21:42;;;;;;;11.23;1.02;;;13.80;99.90;;;;;;5034179;28;20443;-78
2022/07/03 08:24:10;;;;;;;13.23;1.23;;;13.80;99.90;;;;;;5040493;28;20036;-81
2022/07/03 08:26:38;;;;;;;5.95;1.27;;;13.80;99.90;;;;;;5044643;28;20032;-78
2022/07/03 08:29:05;;;;;;;10.00;1.20;;;13.80;99.90;;;;;;5054540;28;20036;-76
2022/07/03 08:31:33;;;;;;;6.85;0.65;;;13.80;99.90;;;;;;5043532;28;20037;-77
2022/07/03 08:34:00;;;;;;;7.57;1.05;;;13.80;99.90;;;;;;5042788;28;20163;-75
2022/07/03 08:36:28;;;;;;;8.85;1.35;;;13.90;99.90;;;;;;5049657;28;20166;-77
2022/07/03 08:38:56;;;;;;;3.92;0.75;;;13.90;99.90;;;;;;5048140;28;20166;-77
2022/07/03 08:41:25;;;;;;;7.80;1.00;;;13.90;99.90;;;;;;5045836;28;20041;-77
2022/07/03 08:43:53;;;;;;;9.25;2.17;;;13.90;99.90;;;;;;5038345;28;20348;-76
2022/07/03 08:46:21;;;;;;;4.07;0.73;;;13.90;99.90;;;;;;5055318;28;20028;-77
2022/07/03 08:48:50;;;;;;;13.15;2.45;;;13.90;99.90;;;;;;5037711;28;20120;-78
2022/07/03 08:51:20;;;;;;;9.95;0.85;;;13.90;99.90;;;;;;5040119;28;20021;-77
2022/07/03 08:53:48;;;;;;;3.35;0.90;;;13.90;99.90;;;;;;5047594;28;20549;-74
2022/07/03 08:56:16;;;;;;;6.60;1.02;;;13.90;99.90;;;;;;5042916;28;20025;-78
2022/07/03 08:58:44;;;;;;;6.15;0.90;;;13.90;99.90;;;;;;5035344;28;20112;-78
2022/07/03 09:01:14;;;;;;;8.02;1.10;;;13.90;99.90;;;;;;5047376;28;21041;-76
2022/07/03 09:03:42;;;;;;;6.55;0.98;;;13.90;99.90;;;;;;5043282;28;20029;-75
2022/07/03 09:06:13;;;;;;;8.60;1.50;;;13.90;99.90;;;;;;5046771;28;20029;-76
2022/07/03 09:08:42;;;;;;;8.27;1.63;;;13.90;99.90;;;;;;5034199;28;20042;-76
2022/07/03 09:11:10;;;;;;;10.98;1.35;;;14.00;99.90;;;;;;5041990;28;20021;-77
2022/07/03 09:13:37;;;;;;;14.38;1.75;;;14.00;99.90;;;;;;5044370;28;20025;-76
2022/07/03 09:16:05;;;;;;;7.80;0.98;;;14.00;99.90;;;;;;5047537;28;20068;-78
2022/07/03 09:18:42;;;;;;;11.40;1.33;;;14.00;99.90;;;;;;5040909;28;20037;-76
2022/07/03 09:21:10;;;;;;;8.52;0.93;;;14.00;99.90;;;;;;5041089;28;20031;-75
2022/07/03 09:23:42;;;;;;;13.18;3.70;;;14.00;99.90;;;;;;5052698;28;20060;-77
2022/07/03 09:26:19;;;;;;;12.52;1.77;;;14.00;99.90;;;;;;5031458;28;20041;-76
2022/07/03 09:28:55;;;;;;;4.15;0.90;;;14.00;99.90;;;;;;5034420;28;20033;-75
2022/07/03 09:31:25;;;;;;;8.10;2.03;;;14.00;99.90;;;;;;5030299;28;20104;-77
2022/07/03 09:33:59;;;;;;;6.03;0.80;;;14.00;99.90;;;;;;5040659;28;20053;-77
2022/07/03 09:36:46;;;;;;;5.07;0.88;;;14.00;99.90;;;;;;5036693;28;20022;-76
2022/07/03 09:39:31;;;;;;;5.22;0.57;;;14.00;99.90;;;;;;5042981;28;20051;-75
2022/07/03 09:42:19;;;;;;;4.10;0.80;;;14.00;99.90;;;;;;5059870;28;20029;-72
2022/07/03 09:44:47;;;;;;;5.25;1.65;;;13.90;99.90;;;;;;5045128;28;20506;-75
2022/07/03 09:47:20;;;;;;;3.97;0.88;;;13.90;99.90;;;;;;5051431;28;20029;-76
2022/07/03 09:49:55;;;;;;;4.45;1.02;;;13.90;99.90;;;;;;5035193;28;20048;-77
2022/07/03 09:52:33;;;;;;;5.28;1.02;;;13.90;99.90;;;;;;5065180;28;20043;-74
2022/07/03 09:55:02;;;;;;;4.80;0.52;;;14.00;99.90;;;;;;5051854;28;20574;-73
2022/07/03 09:57:30;;;;;;;4.25;1.15;;;13.90;99.90;;;;;;5015013;28;20068;-74
2022/07/03 10:00:17;;;;;;;6.85;1.02;;;13.90;99.90;;;;;;5032042;28;20490;-74
2022/07/03 10:03:07;;;;;;;3.63;0.80;;;14.00;99.90;;;;;;5033123;28;20086;-74
2022/07/03 10:05:41;;;;;;;2.97;0.93;;;14.00;99.90;;;;;;5034686;28;20418;-74
2022/07/03 10:08:14;;;;;;;1.38;0.60;;;14.00;99.90;;;;;;5033366;28;20056;-77
2022/07/03 10:10:45;;;;;;;2.80;0.60;;;14.00;99.90;;;;;;5042557;28;20415;-74
2022/07/03 10:13:14;;;;;;;2.17;0.57;;;14.00;99.90;;;;;;5032959;28;20037;-76
2022/07/03 10:15:43;;;;;;;9.50;1.02;;;14.00;99.90;;;;;;5030700;28;20025;-77
2022/07/03 10:18:12;;;;;;;3.58;1.27;;;14.00;99.90;;;;;;5031360;28;20033;-77
2022/07/03 10:20:47;;;;;;;7.13;1.15;;;14.00;99.90;;;;;;5031950;28;20036;-75
2022/07/03 10:23:17;;;;;;;4.68;0.80;;;14.00;99.90;;;;;;5032764;28;20490;-74
2022/07/03 10:25:46;;;;;;;2.40;0.38;;;14.00;99.90;;;;;;5041243;28;20032;-76
2022/07/03 10:28:16;;;;;;;6.43;0.68;;;14.00;99.90;;;;;;5038867;28;20029;-77
2022/07/03 10:30:47;;;;;;;1.10;0.47;;;14.00;99.90;;;;;;5032206;28;20025;-77
2022/07/03 10:33:15;;;;;;;8.50;1.27;;;14.00;99.90;;;;;;5032060;28;20075;-76
2022/07/03 10:35:53;;;;;;;7.25;0.70;;;14.10;99.90;;;;;;5033862;28;20162;-76
2022/07/03 10:38:33;;;;;;;3.78;1.85;;;14.00;99.90;;;;;;5040175;28;20064;-78
2022/07/03 10:47:01;;;;;;;0.95;0.52;;;14.10;99.90;;;;;;5054684;28;20023;-76
2022/07/03 10:49:28;;;;;;;1.35;0.20;;;14.10;99.90;;;;;;5048209;28;20143;-75
2022/07/03 10:52:03;;;;;;;2.50;0.28;;;14.10;99.90;;;;;;5054926;28;20390;-74
2022/07/03 10:54:33;;;;;;;5.55;0.47;;;14.10;99.90;;;;;;5040410;28;20462;-76
2022/07/03 10:57:00;;;;;;;4.57;0.73;;;14.00;99.90;;;;;;5043558;28;20044;-76
2022/07/03 10:59:44;;;;;;;5.57;0.63;;;14.00;99.90;;;;;;5033612;28;20036;-74
2022/07/03 11:02:23;;;;;;;1.73;0.40;;;14.00;99.90;;;;;;5057464;28;20386;-76
2022/07/03 11:05:00;;;;;;;3.38;0.80;;;14.00;99.90;;;;;;5049155;28;20025;-77
2022/07/03 11:07:29;;;;;;;6.18;0.82;;;14.10;99.90;;;;;;5033048;28;20041;-76
2022/07/03 11:10:15;;;;;;;2.95;1.35;;;14.10;99.90;;;;;;5040518;28;20029;-75
2022/07/03 11:12:57;;;;;;;4.25;0.65;;;14.10;99.90;;;;;;5052505;28;20028;-75
2022/07/03 11:15:43;;;;;;;6.60;0.82;;;14.10;99.90;;;;;;5038779;28;20024;-75
2022/07/03 11:18:27;;;;;;;3.25;0.80;;;14.10;99.90;;;;;;5048703;28;20051;-75
2022/07/03 11:20:55;;;;;;;8.48;1.10;;;14.20;99.90;;;;;;5042541;28;20082;-75
2022/07/03 11:23:28;;;;;;;3.22;0.50;;;14.10;99.90;;;;;;5049186;28;20136;-74
2022/07/03 11:26:20;;;;;;;8.43;0.65;;;14.20;99.90;;;;;;5045424;28;20056;-76
2022/07/03 11:28:47;;;;;;;9.95;1.38;;;14.20;99.90;;;;;;5046791;28;20063;-76
2022/07/03 11:31:15;;;;;;;6.50;0.75;;;14.20;99.90;;;;;;5046106;28;20584;-77
2022/07/03 11:33:56;;;;;;;3.65;0.60;;;14.20;99.90;;;;;;5044471;28;20474;-76
2022/07/03 11:36:30;;;;;;;4.70;1.15;;;14.20;99.90;;;;;;5048441;28;20032;-74
2022/07/03 11:39:01;;;;;;;5.57;2.67;;;14.10;99.90;;;;;;5053478;28;20481;-74
2022/07/03 11:41:37;;;;;;;11.18;2.22;;;14.20;99.90;;;;;;5041122;28;20036;-76
2022/07/03 11:44:07;;;;;;;3.42;0.68;;;14.10;99.90;;;;;;5055352;28;20120;-75
2022/07/03 11:46:36;;;;;;;8.88;1.27;;;14.10;99.90;;;;;;5043525;28;20029;-75
2022/07/03 11:49:12;;;;;;;6.80;0.98;;;14.10;99.90;;;;;;5053354;28;20073;-75
2022/07/03 11:51:43;;;;;;;;;;;14.10;99.90;;;;;;5038620;28;20640;-75
2022/07/03 11:54:11;;;;;;;12.32;0.75;;;14.10;99.90;;;;;;5047494;28;19955;-75
2022/07/03 11:56:41;;;;;;;10.02;1.58;;;14.20;99.90;;;;;;5037090;28;20522;-75
2022/07/03 11:59:08;;;;;;;5.15;0.82;;;14.10;99.90;;;;;;5025017;28;20035;-74
2022/07/03 12:01:37;;;;;;;7.53;1.52;;;14.20;99.90;;;;;;5038601;28;20383;-76
2022/07/03 12:04:05;;;;;;;2.70;1.00;;;14.20;99.90;;;;;;5051409;28;20025;-74
2022/07/03 12:06:48;;;;;;;5.65;1.30;;;14.20;99.90;;;;;;5042528;28;20028;-76
2022/07/03 12:09:36;;;;;;;8.00;1.00;;;14.20;99.90;;;;;;5048229;28;20102;-76
2022/07/03 12:12:12;;;;;;;7.45;1.55;;;14.20;99.90;;;;;;5043066;28;20036;-74
2022/07/03 12:14:47;;;;;;;11.65;1.23;;;14.20;99.90;;;;;;5030101;28;20025;-74
2022/07/03 12:17:17;;;;;;;7.80;2.20;;;14.10;99.90;;;;;;5048116;28;20112;-75
2022/07/03 12:19:48;;;;;;;5.00;1.92;;;14.10;99.90;;;;;;5060473;28;20374;-74
2022/07/03 12:22:25;;;;;;;6.75;2.85;;;14.10;99.90;;;;;;5049682;28;20078;-74
2022/07/03 12:25:02;;;;;;;5.60;2.00;;;14.10;99.90;;;;;;5031389;28;20040;-75
2022/07/03 12:27:32;;;;;;;5.90;1.17;;;14.20;99.90;;;;;;5060539;28;20063;-75
2022/07/03 12:30:00;;;;;;;4.88;1.08;;;14.20;99.90;;;;;;5057204;28;20515;-75
2022/07/03 12:32:28;;;;;;;8.45;2.17;;;14.20;99.90;;;;;;5035280;28;20034;-74
2022/07/03 12:34:56;;;;;;;7.97;1.15;;;14.20;99.90;;;;;;5058781;28;20039;-74
2022/07/03 12:37:52;;;;;;;10.07;1.52;;;14.20;99.90;;;;;;5055407;28;20365;-75
2022/07/03 12:40:20;;;;;;;4.38;0.55;;;14.20;99.90;;;;;;5036172;28;20434;-74
2022/07/03 12:42:49;;;;;;;9.65;1.42;;;14.10;99.90;;;;;;5041241;28;20104;-74
2022/07/03 12:45:24;;;;;;;4.72;1.30;;;14.10;99.90;;;;;;5045117;28;20095;-74
2022/07/03 12:48:04;;;;;;;3.72;1.48;;;14.10;99.90;;;;;;5037018;28;20248;-77
2022/07/03 12:50:52;;;;;;;8.15;0.98;;;14.10;99.90;;;;;;5030524;28;20472;-77
2022/07/03 12:53:32;;;;;;;7.53;1.58;;;14.10;99.90;;;;;;5048368;28;20256;-74
2022/07/03 12:56:07;;;;;;;13.02;1.95;;;14.10;99.90;;;;;;5042397;28;20570;-78
2022/07/03 13:01:33;;;;;;;6.75;1.17;;;14.10;99.90;;;;;;5047843;28;20043;-78
2022/07/03 13:04:01;;;;;;;6.87;1.47;;;14.10;99.90;;;;;;5042505;28;20071;-78
2022/07/03 13:06:28;;;;;;;11.35;1.13;;;14.10;99.90;;;;;;5038810;28;20383;-77
2022/07/03 13:09:04;;;;;;;13.00;1.33;;;14.10;99.90;;;;;;5045816;28;20029;-77
2022/07/03 13:11:39;;;;;;;9.25;1.42;;;14.10;99.90;;;;;;5039675;28;20036;-78
2022/07/03 13:14:18;;;;;;;9.48;1.67;;;14.20;99.90;;;;;;5045576;28;20033;-78
2022/07/03 13:16:48;;;;;;;8.43;2.58;;;14.20;99.90;;;;;;5038163;28;20040;-79
2022/07/03 13:19:18;;;;;;;7.82;1.25;;;14.20;99.90;;;;;;5048354;28;20491;-79
2022/07/03 13:21:46;;;;;;;10.30;1.00;;;14.20;99.90;;;;;;5037835;28;20124;-78